Time;durP1;ratioP1;P1;durP2;ratioP2;P2;SDS_P1;SDS_P2;PMS_P1;PMS_P2;Temp;Humidity;BMP_temperature;BMP_pressure;BME280_temperature;BME280_humidity;BME280_pressure;Samples;Min_cycle;Max_cycle;Signal;HPM_P1;HPM_P2
2021/10/30 00:01:53;;;;;;;14.35;10.95;;;3.90;99.90;;;;;;5053343;28;20044;-72
2021/10/30 00:04:20;;;;;;;12.55;9.65;;;4.00;99.90;;;;;;5051407;28;20052;-71
2021/10/30 00:06:54;;;;;;;15.43;10.18;;;3.90;99.90;;;;;;5053471;28;20032;-72
2021/10/30 00:09:26;;;;;;;;;;;3.90;99.90;;;;;;5036476;28;20048;-72
2021/10/30 00:11:53;;;;;;;15.27;10.40;;;4.00;99.90;;;;;;5051596;28;20337;-72
2021/10/30 00:14:26;;;;;;;16.30;10.43;;;3.90;99.90;;;;;;5051189;28;20135;-72
2021/10/30 00:16:53;;;;;;;16.60;9.15;;;3.90;99.90;;;;;;5051922;28;20037;-72
2021/10/30 00:19:19;;;;;;;24.88;9.30;;;3.90;99.90;;;;;;5046133;28;20545;-76
2021/10/30 00:21:53;;;;;;;11.02;9.35;;;3.80;99.90;;;;;;5050408;28;20056;-72
2021/10/30 00:24:20;;;;;;;32.38;10.57;;;3.80;99.90;;;;;;5050805;28;20388;-72
2021/10/30 00:26:48;;;;;;;41.47;10.57;;;3.70;99.90;;;;;;5035344;28;20041;-72
2021/10/30 00:29:15;;;;;;;45.20;11.18;;;3.50;99.90;;;;;;5051609;28;20052;-72
2021/10/30 00:31:42;;;;;;;28.30;10.55;;;3.50;99.90;;;;;;5051808;28;20048;-71
2021/10/30 00:34:09;;;;;;;12.43;10.30;;;3.40;99.90;;;;;;5051349;28;20045;-72
2021/10/30 00:36:36;;;;;;;20.00;10.68;;;3.30;99.90;;;;;;5035253;28;20049;-72
2021/10/30 00:39:03;;;;;;;27.02;11.13;;;3.40;99.90;;;;;;5051432;28;20053;-72
2021/10/30 00:41:30;;;;;;;27.95;11.70;;;3.40;99.90;;;;;;5051546;28;20060;-72
2021/10/30 00:44:09;;;;;;;27.73;12.65;;;3.40;99.90;;;;;;5051377;28;20045;-72
2021/10/30 00:46:40;;;;;;;32.83;12.23;;;3.40;99.90;;;;;;5051515;28;20521;-72
2021/10/30 00:49:15;;;;;;;17.17;10.70;;;3.40;99.90;;;;;;5035752;28;20515;-72
2021/10/30 00:51:51;;;;;;;32.67;11.00;;;3.40;99.90;;;;;;5035381;28;20412;-72
2021/10/30 00:54:25;;;;;;;25.42;10.65;;;3.40;99.90;;;;;;5051152;28;20045;-72
2021/10/30 00:56:54;;;;;;;22.23;11.55;;;3.50;99.90;;;;;;5051433;28;20044;-72
2021/10/30 00:59:23;;;;;;;25.65;10.98;;;3.50;99.90;;;;;;5050963;28;20084;-72
2021/10/30 01:01:51;;;;;;;16.27;11.43;;;3.50;99.90;;;;;;5050821;28;20415;-71
2021/10/30 01:04:23;;;;;;;13.50;10.98;;;3.50;99.90;;;;;;5034179;28;20403;-72
2021/10/30 01:06:52;;;;;;;16.55;11.23;;;3.60;99.90;;;;;;5050619;28;20048;-72
2021/10/30 01:09:20;;;;;;;24.77;12.00;;;3.70;99.90;;;;;;5033771;28;20043;-72
2021/10/30 01:11:53;;;;;;;23.77;11.18;;;3.70;99.90;;;;;;5051803;28;20063;-71
2021/10/30 01:14:25;;;;;;;29.90;11.43;;;3.70;99.90;;;;;;5050129;28;20053;-72
2021/10/30 01:17:01;;;;;;;57.58;12.65;;;3.70;99.90;;;;;;5051581;28;20041;-71
2021/10/30 01:19:30;;;;;;;61.47;12.00;;;3.70;99.90;;;;;;5050412;28;20059;-72
2021/10/30 01:22:03;;;;;;;55.72;12.38;;;3.70;99.90;;;;;;5049573;28;20052;-72
2021/10/30 01:24:30;;;;;;;54.35;12.23;;;3.60;99.90;;;;;;5051641;28;20044;-72
2021/10/30 01:27:02;;;;;;;45.15;12.52;;;3.60;99.90;;;;;;5050947;28;20041;-72
2021/10/30 01:29:34;;;;;;;55.15;12.45;;;3.60;99.90;;;;;;5034764;28;20044;-72
2021/10/30 01:32:02;;;;;;;39.80;11.27;;;3.60;99.90;;;;;;5051589;28;20033;-72
2021/10/30 01:34:29;;;;;;;38.28;10.68;;;3.60;99.90;;;;;;5049736;28;20075;-72
2021/10/30 01:36:56;;;;;;;17.92;10.55;;;3.60;99.90;;;;;;5051365;28;20404;-72
2021/10/30 01:39:24;;;;;;;13.32;9.90;;;3.60;99.90;;;;;;5050137;28;20041;-72
2021/10/30 01:41:56;;;;;;;12.40;9.38;;;3.60;99.90;;;;;;5049824;28;20409;-72
2021/10/30 01:44:23;;;;;;;21.83;9.35;;;3.60;99.90;;;;;;5048901;28;20049;-72
2021/10/30 01:47:00;;;;;;;18.40;9.95;;;3.70;99.90;;;;;;5050079;28;20507;-72
2021/10/30 01:49:29;;;;;;;18.10;9.02;;;3.70;99.90;;;;;;5050236;28;20461;-72
2021/10/30 01:51:56;;;;;;;13.93;9.90;;;3.70;99.90;;;;;;5050602;28;20536;-72
2021/10/30 01:54:28;;;;;;;13.73;10.02;;;3.70;99.90;;;;;;5051115;28;20090;-72
2021/10/30 01:56:56;;;;;;;24.83;9.82;;;3.70;99.90;;;;;;5050539;28;20071;-72
2021/10/30 01:59:23;;;;;;;11.63;9.63;;;3.70;99.90;;;;;;5051424;28;20044;-72
2021/10/30 02:01:58;;;;;;;11.00;9.02;;;3.70;99.90;;;;;;5050713;28;20037;-72
2021/10/30 02:04:30;;;;;;;13.65;9.50;;;3.70;99.90;;;;;;5049591;28;20137;-71
2021/10/30 02:06:57;;;;;;;12.90;9.30;;;3.70;99.90;;;;;;5050252;28;20037;-72
2021/10/30 02:09:24;;;;;;;12.00;9.90;;;3.70;99.90;;;;;;5050035;28;20044;-71
2021/10/30 02:11:56;;;;;;;20.63;10.30;;;3.70;99.90;;;;;;5050238;28;20098;-72
2021/10/30 02:14:28;;;;;;;16.05;10.18;;;3.70;99.90;;;;;;5049718;28;20522;-72
2021/10/30 02:16:55;;;;;;;11.27;9.07;;;3.80;99.90;;;;;;5050107;28;20061;-72
2021/10/30 02:19:27;;;;;;;18.85;9.82;;;3.80;99.90;;;;;;5049844;28;20037;-72
2021/10/30 02:21:55;;;;;;;19.90;9.93;;;3.80;99.90;;;;;;5049986;28;20045;-72
2021/10/30 02:24:27;;;;;;;27.50;9.32;;;3.80;99.90;;;;;;5049740;28;20059;-72
2021/10/30 02:26:59;;;;;;;35.28;10.27;;;3.70;99.90;;;;;;5034533;28;20052;-71
2021/10/30 02:29:31;;;;;;;12.50;9.27;;;3.70;99.90;;;;;;5049918;28;20530;-72
2021/10/30 02:31:58;;;;;;;17.73;9.38;;;3.70;99.90;;;;;;5051616;28;20041;-71
2021/10/30 02:34:25;;;;;;;28.98;9.65;;;3.70;99.90;;;;;;5052378;28;20414;-72
2021/10/30 02:36:52;;;;;;;15.43;9.15;;;3.70;99.90;;;;;;5053957;28;20427;-72
2021/10/30 02:39:21;;;;;;;20.35;9.85;;;3.70;99.90;;;;;;5053956;28;20144;-72
2021/10/30 02:41:48;;;;;;;11.27;8.38;;;3.70;99.90;;;;;;5053780;28;20041;-72
2021/10/30 02:44:17;;;;;;;13.32;8.80;;;3.70;99.90;;;;;;5053384;28;20095;-72
2021/10/30 02:46:44;;;;;;;18.85;9.38;;;3.70;99.90;;;;;;5053472;28;20048;-72
2021/10/30 02:49:12;;;;;;;10.85;8.52;;;3.70;99.90;;;;;;5054937;28;20041;-72
2021/10/30 02:51:44;;;;;;;9.25;8.13;;;3.70;99.90;;;;;;5037696;28;20511;-72
2021/10/30 02:54:16;;;;;;;13.05;8.82;;;3.70;99.90;;;;;;5053392;28;20045;-72
2021/10/30 02:56:48;;;;;;;10.35;8.82;;;3.70;99.90;;;;;;5037630;28;20127;-72
2021/10/30 02:59:20;;;;;;;9.93;8.02;;;3.70;99.90;;;;;;5037711;28;20037;-72
2021/10/30 03:01:52;;;;;;;12.15;8.57;;;3.70;99.90;;;;;;5053230;28;20545;-72
2021/10/30 03:04:24;;;;;;;15.30;8.27;;;3.70;99.90;;;;;;5053185;28;20052;-72
2021/10/30 03:06:56;;;;;;;13.02;8.52;;;3.70;99.90;;;;;;5053435;28;20041;-72
2021/10/30 03:09:28;;;;;;;10.05;9.05;;;3.60;99.90;;;;;;5053258;28;20049;-72
2021/10/30 03:11:55;;;;;;;11.65;9.15;;;3.60;99.90;;;;;;5053129;28;20044;-72
2021/10/30 03:14:27;;;;;;;11.98;9.32;;;3.60;99.90;;;;;;5037215;28;20052;-72
2021/10/30 03:16:59;;;;;;;20.35;9.43;;;3.70;99.90;;;;;;5037362;28;20049;-72
2021/10/30 03:19:32;;;;;;;19.05;9.30;;;3.70;99.90;;;;;;5053105;28;20049;-71
2021/10/30 03:21:59;;;;;;;16.58;9.63;;;3.70;99.90;;;;;;5052706;28;20048;-72
2021/10/30 03:24:31;;;;;;;12.73;9.95;;;3.70;99.90;;;;;;5052726;28;20049;-72
2021/10/30 03:26:58;;;;;;;13.05;8.98;;;3.70;99.90;;;;;;5053035;28;20047;-72
2021/10/30 03:29:25;;;;;;;25.08;9.77;;;3.70;99.90;;;;;;5052984;28;20049;-72
2021/10/30 03:31:57;;;;;;;20.98;9.82;;;3.70;99.90;;;;;;5036945;28;20037;-72
2021/10/30 03:34:24;;;;;;;15.45;9.25;;;3.70;99.90;;;;;;5052723;28;20083;-72
2021/10/30 03:36:56;;;;;;;15.90;9.10;;;3.70;99.90;;;;;;5037160;28;20071;-72
2021/10/30 03:39:23;;;;;;;12.40;9.27;;;3.70;99.90;;;;;;5052759;28;20522;-72
2021/10/30 03:41:55;;;;;;;14.85;9.00;;;3.70;99.90;;;;;;5036788;28;20455;-72
2021/10/30 03:44:22;;;;;;;11.70;8.55;;;3.80;99.90;;;;;;5052428;28;20495;-72
2021/10/30 03:46:49;;;;;;;12.70;8.45;;;3.90;99.90;;;;;;5051684;28;20045;-73
2021/10/30 03:49:21;;;;;;;13.73;9.15;;;3.80;99.90;;;;;;5036804;28;20043;-72
2021/10/30 03:51:48;;;;;;;10.18;8.32;;;3.80;99.90;;;;;;5053693;28;20095;-72
2021/10/30 03:54:20;;;;;;;17.02;9.10;;;3.80;99.90;;;;;;5052232;28;20045;-72
2021/10/30 03:56:53;;;;;;;17.73;9.03;;;3.80;99.90;;;;;;5052597;28;20095;-72
2021/10/30 03:59:21;;;;;;;15.68;9.05;;;3.80;99.90;;;;;;5053740;28;20044;-72
2021/10/30 04:01:47;;;;;;;19.65;9.82;;;3.80;99.90;;;;;;5053314;28;20146;-72
2021/10/30 04:04:19;;;;;;;14.00;9.13;;;3.80;99.90;;;;;;5052071;28;20044;-72
2021/10/30 04:06:46;;;;;;;14.20;8.60;;;3.80;99.90;;;;;;5052076;28;20060;-72
2021/10/30 04:09:13;;;;;;;14.45;9.35;;;3.70;99.90;;;;;;5035779;28;20049;-71
2021/10/30 04:11:40;;;;;;;16.13;9.23;;;3.70;99.90;;;;;;5053122;28;20496;-72
2021/10/30 04:14:12;;;;;;;19.60;10.13;;;3.60;99.90;;;;;;5051879;28;20048;-72
2021/10/30 04:16:44;;;;;;;11.88;8.52;;;3.70;99.90;;;;;;5051914;28;20041;-72
2021/10/30 04:19:16;;;;;;;11.13;9.18;;;3.60;99.90;;;;;;5053486;28;20041;-72
2021/10/30 04:21:57;;;;;;;10.13;8.23;;;3.60;99.90;;;;;;5053162;28;20068;-72
2021/10/30 04:24:24;;;;;;;11.80;8.48;;;3.60;99.90;;;;;;5051108;28;20099;-72
2021/10/30 04:26:56;;;;;;;13.30;7.72;;;3.60;99.90;;;;;;5036011;28;20053;-72
2021/10/30 04:29:28;;;;;;;10.45;7.90;;;3.50;99.90;;;;;;5051872;28;20424;-72
2021/10/30 04:31:58;;;;;;;10.10;8.32;;;3.50;99.90;;;;;;5053060;28;20041;-72
2021/10/30 04:34:40;;;;;;;11.15;8.07;;;3.50;99.90;;;;;;5051443;28;20570;-72
2021/10/30 04:37:16;;;;;;;30.40;9.55;;;3.50;99.90;;;;;;5051786;28;20071;-72
2021/10/30 04:39:51;;;;;;;17.67;9.13;;;3.60;99.90;;;;;;5052974;28;20487;-72
2021/10/30 04:42:23;;;;;;;14.32;10.30;;;3.50;99.90;;;;;;5051530;28;20049;-72
2021/10/30 04:44:50;;;;;;;10.93;8.43;;;3.50;99.90;;;;;;5051214;28;20090;-72
2021/10/30 04:47:22;;;;;;;13.85;8.85;;;3.50;99.90;;;;;;5051573;28;20139;-72
2021/10/30 04:49:49;;;;;;;11.18;9.45;;;3.60;99.90;;;;;;5051664;28;20045;-72
2021/10/30 04:52:17;;;;;;;14.63;8.88;;;3.60;99.90;;;;;;5051302;28;20052;-72
2021/10/30 04:54:49;;;;;;;17.75;8.85;;;3.60;99.90;;;;;;5049579;28;20499;-72
2021/10/30 04:57:21;;;;;;;13.15;9.27;;;3.60;99.90;;;;;;5045117;28;20373;-73
2021/10/30 04:59:48;;;;;;;12.98;9.85;;;3.60;99.90;;;;;;5050674;28;20041;-73
2021/10/30 05:02:15;;;;;;;12.25;9.32;;;3.60;99.90;;;;;;5050517;28;20487;-72
2021/10/30 05:04:47;;;;;;;12.63;10.40;;;3.60;99.90;;;;;;5050576;28;20049;-72
2021/10/30 05:07:19;;;;;;;12.85;8.88;;;3.60;99.90;;;;;;5048105;28;20045;-72
2021/10/30 05:09:46;;;;;;;13.88;8.88;;;3.60;99.90;;;;;;5049096;28;20037;-73
2021/10/30 05:12:13;;;;;;;15.77;9.48;;;3.60;99.90;;;;;;5039689;28;20124;-72
2021/10/30 05:14:40;;;;;;;18.08;9.10;;;3.60;99.90;;;;;;5049262;28;20040;-73
2021/10/30 05:17:07;;;;;;;13.88;8.02;;;3.60;99.90;;;;;;5048109;28;20398;-73
2021/10/30 05:19:34;;;;;;;11.55;8.05;;;3.60;99.90;;;;;;5042567;28;20051;-73
2021/10/30 05:22:01;;;;;;;17.13;9.73;;;3.60;99.90;;;;;;5049114;28;20056;-72
2021/10/30 05:24:28;;;;;;;10.93;7.93;;;3.60;99.90;;;;;;5051359;28;20084;-71
2021/10/30 05:27:00;;;;;;;9.32;7.88;;;3.50;99.90;;;;;;5050089;28;20045;-72
2021/10/30 05:29:32;;;;;;;9.85;8.20;;;3.50;99.90;;;;;;5050861;28;20040;-72
2021/10/30 05:32:04;;;;;;;11.52;7.88;;;3.60;99.90;;;;;;5050623;28;20049;-73
2021/10/30 05:34:38;;;;;;;12.15;8.88;;;3.50;99.90;;;;;;5050586;28;20041;-73
2021/10/30 05:37:28;;;;;;;12.52;10.75;;;3.60;99.90;;;;;;5051427;28;20052;-72
2021/10/30 05:39:55;;;;;;;10.20;8.35;;;3.60;99.90;;;;;;5050345;28;20041;-72
2021/10/30 05:42:22;;;;;;;9.88;8.35;;;3.70;99.90;;;;;;5040364;28;20707;-73
2021/10/30 05:44:49;;;;;;;9.70;7.38;;;3.70;99.90;;;;;;5066077;28;20056;-72
2021/10/30 05:47:17;;;;;;;12.23;8.02;;;3.60;99.90;;;;;;5033404;28;20127;-72
2021/10/30 05:49:44;;;;;;;14.90;7.35;;;3.60;99.90;;;;;;5044212;28;20428;-72
2021/10/30 05:52:12;;;;;;;13.27;7.10;;;3.60;99.90;;;;;;5030069;28;20052;-71
2021/10/30 05:54:44;;;;;;;8.87;7.50;;;3.60;99.90;;;;;;5013993;28;20038;-72
2021/10/30 05:57:16;;;;;;;8.05;6.72;;;3.60;99.90;;;;;;5032802;28;20045;-73
2021/10/30 05:59:48;;;;;;;10.13;6.93;;;3.60;99.90;;;;;;5030251;28;20057;-72
2021/10/30 06:02:16;;;;;;;9.70;8.00;;;3.50;99.90;;;;;;5034931;28;20041;-72
2021/10/30 06:04:43;;;;;;;9.88;7.72;;;3.50;99.90;;;;;;5050107;28;20041;-72
2021/10/30 06:07:15;;;;;;;9.88;8.13;;;3.50;99.90;;;;;;5051173;28;20037;-72
2021/10/30 06:09:47;;;;;;;9.55;6.55;;;3.50;99.90;;;;;;5048252;28;20047;-72
2021/10/30 06:12:14;;;;;;;9.48;6.70;;;3.50;99.90;;;;;;5046485;28;20041;-72
2021/10/30 06:14:46;;;;;;;10.15;7.03;;;3.40;99.90;;;;;;5050135;28;20040;-72
2021/10/30 06:17:18;;;;;;;11.73;8.23;;;3.40;99.90;;;;;;5049686;28;20049;-72
2021/10/30 06:19:50;;;;;;;20.85;11.27;;;3.40;99.90;;;;;;5050620;28;20033;-72
2021/10/30 06:22:22;;;;;;;13.93;9.43;;;3.40;99.90;;;;;;5048863;28;20049;-72
2021/10/30 06:24:49;;;;;;;12.02;8.57;;;3.40;99.90;;;;;;5048725;28;20045;-73
2021/10/30 06:27:16;;;;;;;18.88;8.55;;;3.40;99.90;;;;;;5049343;28;20045;-72
2021/10/30 06:29:42;;;;;;;12.20;8.55;;;3.40;99.90;;;;;;5033110;28;20053;-72
2021/10/30 06:32:09;;;;;;;16.85;8.05;;;3.50;99.90;;;;;;5032737;28;20041;-72
2021/10/30 06:34:36;;;;;;;19.33;8.88;;;3.40;99.90;;;;;;5049017;28;20045;-72
2021/10/30 06:37:08;;;;;;;17.33;9.88;;;3.50;99.90;;;;;;5047341;28;20060;-72
2021/10/30 06:39:35;;;;;;;14.50;7.95;;;3.50;99.90;;;;;;5049456;28;20418;-73
2021/10/30 06:42:07;;;;;;;9.27;6.65;;;3.50;99.90;;;;;;5049035;28;20053;-73
2021/10/30 06:44:34;;;;;;;8.63;7.25;;;3.50;99.90;;;;;;5049170;28;20044;-72
2021/10/30 06:47:02;;;;;;;12.95;7.85;;;3.50;99.90;;;;;;5049224;28;20071;-73
2021/10/30 06:49:34;;;;;;;14.70;7.60;;;3.50;99.90;;;;;;5049298;28;20041;-72
2021/10/30 06:52:02;;;;;;;15.43;7.80;;;3.60;99.90;;;;;;5028665;28;20037;-71
2021/10/30 06:54:29;;;;;;;13.95;8.43;;;3.60;99.90;;;;;;5040994;28;20045;-72
2021/10/30 06:56:56;;;;;;;10.82;7.60;;;3.60;99.90;;;;;;5033728;28;20045;-73
2021/10/30 06:59:23;;;;;;;17.17;9.02;;;3.60;99.90;;;;;;5050091;28;20729;-73
2021/10/30 07:01:50;;;;;;;13.63;10.98;;;3.60;99.90;;;;;;5029869;28;20136;-73
2021/10/30 07:04:22;;;;;;;20.67;12.43;;;3.60;99.90;;;;;;5029438;28;20454;-72
2021/10/30 07:06:54;;;;;;;11.25;7.97;;;3.60;99.90;;;;;;5029191;28;20103;-73
2021/10/30 07:09:26;;;;;;;13.00;9.05;;;3.60;99.90;;;;;;5029356;28;20040;-73
2021/10/30 07:11:58;;;;;;;13.45;9.35;;;3.60;99.90;;;;;;5019243;28;20049;-72
2021/10/30 07:14:29;;;;;;;12.05;8.55;;;3.70;99.90;;;;;;5029748;28;20054;-73
2021/10/30 07:17:01;;;;;;;11.80;8.32;;;3.70;99.90;;;;;;5029312;28;20045;-72
2021/10/30 07:19:28;;;;;;;19.60;7.97;;;3.70;99.90;;;;;;5040238;28;20468;-72
2021/10/30 07:21:55;;;;;;;9.93;8.52;;;3.80;99.90;;;;;;5050806;28;20414;-75
2021/10/30 07:24:22;;;;;;;14.13;10.45;;;3.80;99.90;;;;;;5052414;28;20045;-72
2021/10/30 07:26:54;;;;;;;28.85;18.67;;;3.80;99.90;;;;;;5050831;28;20361;-74
2021/10/30 07:29:26;;;;;;;25.65;16.67;;;3.80;99.90;;;;;;5036947;28;20040;-74
2021/10/30 07:31:58;;;;;;;14.95;10.27;;;3.80;99.90;;;;;;5052001;28;20052;-74
2021/10/30 07:34:30;;;;;;;12.60;8.95;;;3.90;99.90;;;;;;5036506;28;20049;-73
2021/10/30 07:37:03;;;;;;;12.23;8.30;;;4.00;99.90;;;;;;5052112;28;20053;-73
2021/10/30 07:39:35;;;;;;;10.68;8.55;;;4.00;99.90;;;;;;5053893;28;20048;-74
2021/10/30 07:42:07;;;;;;;17.20;9.43;;;4.10;99.90;;;;;;5052259;28;20076;-73
2021/10/30 07:44:42;;;;;;;12.60;9.32;;;4.10;99.90;;;;;;5036857;28;20056;-73
2021/10/30 07:47:16;;;;;;;12.20;8.77;;;4.10;99.90;;;;;;5047857;28;20041;-73
2021/10/30 07:49:49;;;;;;;11.70;8.60;;;4.20;99.90;;;;;;5053774;28;20040;-73
2021/10/30 07:52:15;;;;;;;15.93;9.60;;;4.20;99.90;;;;;;5034461;28;20037;-73
2021/10/30 07:54:43;;;;;;;11.85;10.48;;;4.20;99.90;;;;;;5040197;28;20168;-73
2021/10/30 07:57:10;;;;;;;13.27;10.82;;;4.20;99.90;;;;;;5039318;28;20049;-73
2021/10/30 07:59:40;;;;;;;10.43;9.32;;;4.30;99.90;;;;;;5037801;28;20045;-73
2021/10/30 08:02:08;;;;;;;13.27;10.20;;;4.30;99.90;;;;;;5041832;28;20131;-73
2021/10/30 08:04:36;;;;;;;12.43;8.80;;;4.40;99.90;;;;;;5040498;28;20208;-73
2021/10/30 08:07:04;;;;;;;11.18;9.40;;;4.50;99.90;;;;;;5038894;28;20103;-73
2021/10/30 08:09:36;;;;;;;;;;;4.50;99.90;;;;;;5037734;28;20464;-73
2021/10/30 08:12:10;;;;;;;11.10;8.75;;;4.60;99.90;;;;;;5031504;28;19944;-73
2021/10/30 08:14:38;;;;;;;10.68;8.32;;;4.60;99.90;;;;;;5034843;28;20064;-72
2021/10/30 08:17:07;;;;;;;13.70;10.82;;;4.60;99.90;;;;;;5031548;28;20045;-73
2021/10/30 08:19:34;;;;;;;17.40;13.07;;;4.60;99.90;;;;;;5031679;28;20080;-72
2021/10/30 08:22:02;;;;;;;17.27;11.48;;;4.70;99.90;;;;;;5049739;28;20398;-73
2021/10/30 08:24:29;;;;;;;10.20;8.30;;;4.80;99.90;;;;;;5032851;28;20519;-73
2021/10/30 08:27:01;;;;;;;15.88;11.63;;;4.90;99.90;;;;;;5031064;28;20049;-73
2021/10/30 08:29:28;;;;;;;16.92;10.68;;;4.90;99.90;;;;;;5033020;28;20045;-73
2021/10/30 08:32:00;;;;;;;9.82;8.82;;;4.90;99.90;;;;;;5050943;28;20045;-73
2021/10/30 08:34:32;;;;;;;9.77;8.38;;;4.90;99.90;;;;;;5050795;28;20041;-73
2021/10/30 08:36:59;;;;;;;10.65;8.23;;;5.00;99.90;;;;;;5034607;28;20041;-73
2021/10/30 08:39:32;;;;;;;12.30;8.80;;;5.00;99.90;;;;;;5050174;28;20098;-73
2021/10/30 08:42:05;;;;;;;12.23;9.07;;;5.10;99.90;;;;;;5051190;28;20045;-74
2021/10/30 08:44:40;;;;;;;9.02;7.25;;;5.20;99.90;;;;;;5050543;28;20048;-74
2021/10/30 08:47:12;;;;;;;9.43;8.43;;;5.20;99.90;;;;;;5046764;28;20041;-75
2021/10/30 08:49:44;;;;;;;12.45;9.85;;;5.30;99.90;;;;;;5015536;28;20068;-73
2021/10/30 08:52:11;;;;;;;11.20;9.68;;;5.30;99.90;;;;;;5031350;28;20037;-73
2021/10/30 08:54:38;;;;;;;10.50;9.38;;;5.30;99.90;;;;;;5030765;28;20045;-73
2021/10/30 08:57:10;;;;;;;12.77;9.85;;;5.30;99.90;;;;;;5030972;28;20050;-73
2021/10/30 08:59:40;;;;;;;11.75;9.80;;;5.40;99.90;;;;;;5014707;28;20052;-73
2021/10/30 09:02:09;;;;;;;12.63;9.85;;;5.40;99.90;;;;;;5030702;28;20435;-73
2021/10/30 09:04:41;;;;;;;;;;;5.50;99.90;;;;;;5032544;28;20045;-73
2021/10/30 09:07:16;;;;;;;11.65;8.98;;;5.60;99.90;;;;;;5050250;28;19929;-73
2021/10/30 09:09:50;;;;;;;12.65;8.90;;;5.60;99.90;;;;;;5049323;28;20041;-73
2021/10/30 09:12:24;;;;;;;10.82;9.15;;;5.60;99.90;;;;;;5050989;28;20041;-73
2021/10/30 09:14:58;;;;;;;9.85;8.75;;;5.60;99.90;;;;;;5045306;28;20064;-73
2021/10/30 09:17:30;;;;;;;12.57;10.35;;;5.70;99.90;;;;;;5041083;28;20045;-73
2021/10/30 09:20:07;;;;;;;12.88;10.13;;;5.80;99.90;;;;;;5027916;28;20041;-72
2021/10/30 09:22:39;;;;;;;12.45;9.98;;;5.80;99.90;;;;;;5038523;28;20069;-73
2021/10/30 09:25:08;;;;;;;11.25;9.90;;;5.90;99.90;;;;;;5046107;28;20499;-72
2021/10/30 09:27:47;;;;;;;10.48;9.00;;;6.00;99.90;;;;;;5046990;28;20040;-73
2021/10/30 09:30:28;;;;;;;10.15;9.05;;;6.10;99.90;;;;;;5050367;28;20171;-73
2021/10/30 09:33:01;;;;;;;12.18;10.15;;;6.20;99.90;;;;;;5033778;28;20337;-73
2021/10/30 09:35:33;;;;;;;12.88;10.50;;;6.20;99.90;;;;;;5050583;28;20080;-73
2021/10/30 09:38:06;;;;;;;12.93;10.95;;;6.10;99.90;;;;;;5035135;28;20049;-73
2021/10/30 09:40:33;;;;;;;12.25;10.75;;;6.10;99.90;;;;;;5049658;28;20102;-73
2021/10/30 09:43:14;;;;;;;25.75;16.95;;;6.00;99.90;;;;;;5049201;28;20056;-73
2021/10/30 09:45:48;;;;;;;17.45;13.10;;;6.00;99.90;;;;;;5049135;28;20037;-73
2021/10/30 09:48:23;;;;;;;16.67;12.75;;;6.10;99.90;;;;;;5049453;28;20048;-73
2021/10/30 09:50:58;;;;;;;14.88;13.25;;;6.10;99.90;;;;;;5049400;28;20048;-73
2021/10/30 09:53:36;;;;;;;14.23;9.73;;;6.20;99.90;;;;;;5035242;28;20033;-73
2021/10/30 09:56:06;;;;;;;12.33;9.77;;;6.30;99.90;;;;;;5035942;28;20080;-73
2021/10/30 09:58:45;;;;;;;12.35;10.20;;;6.30;99.90;;;;;;5049359;28;20079;-73
2021/10/30 10:01:20;;;;;;;11.45;9.65;;;6.40;99.90;;;;;;5051518;28;20139;-73
2021/10/30 10:03:54;;;;;;;13.65;11.32;;;6.40;99.90;;;;;;5051946;28;20076;-73
2021/10/30 10:06:23;;;;;;;12.05;10.57;;;6.40;99.90;;;;;;5051703;28;20083;-73
2021/10/30 10:08:56;;;;;;;14.38;10.10;;;6.50;99.90;;;;;;5036965;28;20041;-73
2021/10/30 10:11:25;;;;;;;13.27;11.23;;;6.50;99.90;;;;;;5052104;28;20048;-73
2021/10/30 10:13:57;;;;;;;17.73;11.82;;;6.60;99.90;;;;;;5044917;28;20037;-73
2021/10/30 10:16:26;;;;;;;12.98;11.32;;;6.60;99.90;;;;;;5012986;28;20389;-73
2021/10/30 10:18:58;;;;;;;12.75;10.68;;;6.60;99.90;;;;;;5029369;28;20091;-73
2021/10/30 10:21:34;;;;;;;14.15;10.10;;;6.60;99.90;;;;;;5041100;28;20045;-73
2021/10/30 10:24:11;;;;;;;13.93;10.80;;;6.70;99.90;;;;;;5035657;28;20034;-73
2021/10/30 10:26:55;;;;;;;12.80;9.98;;;6.80;99.90;;;;;;5038341;28;20041;-73
2021/10/30 10:29:43;;;;;;;16.35;10.75;;;6.90;99.90;;;;;;5035407;28;20052;-73
2021/10/30 10:32:15;;;;;;;12.50;10.05;;;7.00;99.90;;;;;;5045099;28;20050;-73
2021/10/30 10:34:49;;;;;;;35.50;23.85;;;7.10;99.90;;;;;;5027142;28;20041;-73
2021/10/30 10:37:23;;;;;;;15.52;11.45;;;7.10;99.90;;;;;;5035990;28;20057;-73
2021/10/30 10:39:57;;;;;;;12.30;10.95;;;7.20;99.90;;;;;;5029713;28;20047;-74
2021/10/30 10:42:35;;;;;;;15.10;11.50;;;7.30;99.90;;;;;;5046532;28;20048;-73
2021/10/30 10:45:15;;;;;;;14.50;12.10;;;7.30;99.90;;;;;;5050229;28;20526;-73
2021/10/30 10:47:44;;;;;;;15.50;11.55;;;7.40;99.90;;;;;;5051841;28;20488;-74
2021/10/30 10:50:28;;;;;;;13.82;11.77;;;7.40;99.90;;;;;;5049407;28;20049;-73
2021/10/30 10:53:06;;;;;;;16.10;12.35;;;7.50;99.90;;;;;;5049068;28;20041;-73
2021/10/30 10:55:58;;;;;;;12.85;11.25;;;7.50;99.90;;;;;;5051197;28;20450;-73
2021/10/30 10:58:30;;;;;;;15.55;11.75;;;7.60;99.90;;;;;;5054493;28;20052;-74
2021/10/30 11:01:05;;;;;;;15.82;12.95;;;7.60;99.90;;;;;;5052880;28;20048;-73
2021/10/30 11:03:44;;;;;;;13.77;11.65;;;7.60;99.90;;;;;;5052630;28;20055;-73
2021/10/30 11:06:32;;;;;;;15.75;13.20;;;7.70;99.90;;;;;;5052291;28;20056;-73
2021/10/30 11:09:15;;;;;;;18.08;13.02;;;7.70;99.90;;;;;;5052967;28;20048;-73
2021/10/30 11:11:47;;;;;;;17.38;13.27;;;7.70;99.90;;;;;;5052005;28;20037;-74
2021/10/30 11:14:24;;;;;;;17.50;14.15;;;7.70;99.90;;;;;;5052598;28;20065;-73
2021/10/30 11:16:53;;;;;;;18.65;13.85;;;7.70;99.90;;;;;;5052620;28;20040;-73
2021/10/30 11:19:36;;;;;;;15.93;13.30;;;7.60;99.90;;;;;;5042270;28;20063;-74
2021/10/30 11:22:15;;;;;;;15.75;12.55;;;7.60;99.90;;;;;;5036038;28;20049;-73
2021/10/30 11:25:00;;;;;;;15.77;12.98;;;7.60;99.90;;;;;;5053764;28;20045;-73
2021/10/30 11:27:27;;;;;;;16.48;13.32;;;7.60;99.90;;;;;;5050534;28;20041;-73
2021/10/30 11:30:04;;;;;;;17.10;14.15;;;7.60;99.90;;;;;;5052221;28;20045;-73
2021/10/30 11:32:36;;;;;;;18.13;15.02;;;7.60;99.90;;;;;;5041975;28;20047;-73
2021/10/30 11:35:11;;;;;;;16.17;13.35;;;7.50;99.90;;;;;;5043828;28;20041;-73
2021/10/30 11:37:42;;;;;;;17.35;13.68;;;7.60;99.90;;;;;;5052399;28;20509;-74
2021/10/30 11:40:14;;;;;;;16.45;13.57;;;7.60;99.90;;;;;;5041647;28;20410;-73
2021/10/30 11:42:46;;;;;;;18.30;12.98;;;7.60;99.90;;;;;;5059718;28;20075;-74
2021/10/30 11:45:18;;;;;;;16.60;13.90;;;7.60;99.90;;;;;;5027149;28;20415;-72
2021/10/30 11:47:53;;;;;;;16.58;13.65;;;7.60;99.90;;;;;;5035086;28;20141;-73
2021/10/30 11:50:20;;;;;;;16.35;13.38;;;7.70;99.90;;;;;;5044313;28;20128;-73
2021/10/30 11:52:50;;;;;;;18.45;12.88;;;7.80;99.90;;;;;;5048795;28;20041;-73
2021/10/30 11:55:22;;;;;;;15.07;13.30;;;7.90;99.90;;;;;;5032263;28;20484;-73
2021/10/30 11:57:54;;;;;;;16.05;13.00;;;7.90;99.90;;;;;;5031287;28;20523;-73
2021/10/30 12:00:23;;;;;;;16.02;13.52;;;8.00;99.90;;;;;;5014563;28;20076;-72
2021/10/30 12:03:03;;;;;;;15.43;12.30;;;8.00;99.90;;;;;;5031016;28;20559;-73
2021/10/30 12:05:34;;;;;;;14.27;12.40;;;8.10;99.90;;;;;;5014447;28;20103;-73
2021/10/30 12:08:09;;;;;;;16.85;13.05;;;8.10;99.90;;;;;;5030839;28;20038;-72
2021/10/30 12:10:38;;;;;;;15.93;13.27;;;8.20;99.90;;;;;;5029135;28;20141;-73
2021/10/30 12:13:10;;;;;;;22.35;13.57;;;8.10;99.90;;;;;;5030993;28;20042;-73
2021/10/30 12:15:42;;;;;;;18.52;12.75;;;8.20;99.90;;;;;;5030859;28;20038;-71
2021/10/30 12:18:09;;;;;;;17.58;14.20;;;8.20;99.90;;;;;;5015294;28;20041;-73
2021/10/30 12:20:36;;;;;;;16.77;14.60;;;8.20;99.90;;;;;;5031229;28;20120;-72
2021/10/30 12:23:11;;;;;;;16.17;13.48;;;8.30;99.90;;;;;;5031730;28;20037;-73
2021/10/30 12:25:44;;;;;;;15.70;13.70;;;8.30;99.90;;;;;;5032384;28;20132;-73
2021/10/30 12:28:29;;;;;;;16.35;13.25;;;8.20;99.90;;;;;;5031569;28;20045;-72
2021/10/30 12:31:10;;;;;;;17.13;13.57;;;8.10;99.90;;;;;;5031222;28;20148;-73
2021/10/30 12:33:43;;;;;;;14.77;13.18;;;8.00;99.90;;;;;;5031316;28;20037;-72
2021/10/30 12:36:15;;;;;;;19.73;13.27;;;7.90;99.90;;;;;;5031201;28;20399;-72
2021/10/30 12:38:53;;;;;;;16.85;14.25;;;7.70;99.90;;;;;;5031691;28;20287;-73
2021/10/30 12:41:20;;;;;;;19.45;13.98;;;7.60;99.90;;;;;;5030965;28;20055;-72
2021/10/30 12:43:58;;;;;;;17.73;13.80;;;7.60;99.90;;;;;;5015032;28;20488;-72
2021/10/30 12:46:53;;;;;;;17.25;14.48;;;7.50;99.90;;;;;;5030189;28;20136;-71
2021/10/30 12:49:25;;;;;;;17.40;13.70;;;7.40;99.90;;;;;;5014011;28;20152;-72
2021/10/30 12:52:04;;;;;;;17.48;14.18;;;7.30;99.90;;;;;;5030037;28;20048;-73
2021/10/30 12:54:38;;;;;;;;;;;7.20;99.90;;;;;;5014818;28;20060;-72
2021/10/30 12:57:23;;;;;;;19.20;13.85;;;7.20;99.90;;;;;;5031823;28;20003;-73
2021/10/30 13:00:03;;;;;;;17.58;14.73;;;7.10;99.90;;;;;;5030176;28;20045;-72
2021/10/30 13:02:35;;;;;;;19.20;14.32;;;7.10;99.90;;;;;;5014504;28;20125;-71
2021/10/30 13:05:17;;;;;;;18.35;14.20;;;7.00;99.90;;;;;;5029739;28;20038;-72